Airport View

Enter AWOS ICAO identifier for current METAR.

ex. KFNL

KFKS 191815Z AUTO 36007G15KT 10SM SCT024 M04/M09 A3019 RMK AO2 T10371090

19 Jan 2020 18:31

Frequency: 118.325

Phone: 231-352-7573

Other Area AWOS: KMBL - KTVC - KCAD - KLDM

TAF KMBL 191744Z 1918/2018 01010KT P6SM BKN029 FM192100 36013G22KT P6SM BKN029 FM200300 01006KT P6SM BKN029 FM201200 VRB03KT P6SM BKN026